Tensho — JD4153 — position and weather

sailwx.info

Track history (hours):
 
Tides and Currents Weather Stations Pressure Air Temp Water Temp Dewpoint Dewpoint Depression Visibility Wind Speed Wind Dir Waves Ship Positions

Tensho

Last reported at 2017-Nov-13 02:00 UTC. Time now 2017-Nov-18 19:19 UTC.
Position N 35°11' E 139°45'.

Length 62 m; draft 5.2 m.

Type: Cargo ship. MMSI: 431009101.

Date/timePositionNaut miles runAvg speedWind from/ knotsBaromVisibWave heightAir tempDewpointWater temp
2017-Nov-13 02:00N 35°11' E 139°45'510.1
2017-Nov-13 01:30N 35°17' E 139°45'510.3
2017-Nov-13 01:00N 35°21' E 139°42'510.4
2017-Nov-13 00:30N 35°26' E 139°43'4 7.4
2017-Nov-13 00:00N 35°30' E 139°43'0 0.4
2017-Nov-12 23:24N 35°30' E 139°43'0 0.0
2017-Nov-12 22:57N 35°30' E 139°43'0 0.0
2017-Nov-12 22:30N 35°30' E 139°43'0 0.0
2017-Nov-12 22:00N 35°30' E 139°43'0 0.0
2017-Nov-12 21:28N 35°30' E 139°43'0 0.0
2017-Nov-12 21:01N 35°30' E 139°43'0 0.0
2017-Nov-11 23:31N 35°30' E 139°43'0 0.0
2017-Nov-11 23:30N 35°30' E 139°43'1 2.3
2017-Nov-11 23:00N 35°29' E 139°42'4 7.9
2017-Nov-11 22:30N 35°26' E 139°45'5 9.6
2017-Nov-11 22:01N 35°21' E 139°45'5 9.5
2017-Nov-11 21:31N 35°16' E 139°46'5 9.4
2017-Nov-11 21:01N 35°12' E 139°47'5 9.6
2017-Nov-11 20:30N 35°07' E 139°45'5 9.3
2017-Nov-11 20:00N 35°03' E 139°42'5 9.8
2017-Nov-11 19:30N 35°00' E 139°37'510.2
2017-Nov-11 19:00N 34°57' E 139°32'19 0.5
2017-Nov-10 06:13N 34°50' E 139°11'2410.1
2017-Nov-10 03:49N 35°03' E 139°35'310.0
2017-Nov-10 03:30N 35°05' E 139°38'510.2
2017-Nov-10 03:01N 35°08' E 139°43'511.0
2017-Nov-10 02:30N 35°13' E 139°46'510.6
2017-Nov-10 02:00N 35°18' E 139°44'510.4
2017-Nov-10 01:30N 35°23' E 139°42'2 4.9
2017-Nov-10 01:01N 35°25' E 139°43'4 8.5
2017-Nov-10 00:31N 35°29' E 139°43'1 1.6
2017-Nov-09 23:58N 35°30' E 139°43'0 0.0
2017-Nov-09 23:28N 35°30' E 139°43'0 0.0
2017-Nov-09 22:58N 35°30' E 139°43'0 0.0
2017-Nov-09 22:28N 35°30' E 139°43'1 1.8
2017-Nov-09 22:00N 35°30' E 139°44'4 6.4
2017-Nov-09 21:25N 35°29' E 139°48'0 0.0
2017-Nov-09 20:58N 35°29' E 139°48'0 0.0
2017-Nov-09 19:34N 35°29' E 139°48'0 0.0
2017-Nov-09 19:22N 35°29' E 139°48'1 4.1
2017-Nov-09 19:00N 35°28' E 139°48'510.8
2017-Nov-09 18:30N 35°23' E 139°45'510.1
2017-Nov-09 18:00N 35°18' E 139°45'5 9.9
2017-Nov-09 17:30N 35°13' E 139°47'610.4
2017-Nov-09 16:58N 35°07' E 139°45'  
2017-Nov-03 08:46N 34°49' E 139°08'310.3
2017-Nov-03 08:30N 34°51' E 139°11'19 9.8
2017-Nov-03 06:33N 35°01' E 139°31'110.1
2017-Nov-03 06:27N 35°01' E 139°32'510.3
2017-Nov-03 06:00N 35°03' E 139°36'611.3
2017-Nov-03 05:30N 35°07' E 139°42'611.1
2017-Nov-03 05:00N 35°12' E 139°45'5 9.8
2017-Nov-03 04:28N 35°17' E 139°45'510.3
2017-Nov-03 04:00N 35°21' E 139°42'510.3
2017-Nov-03 03:31N 35°26' E 139°43'4 7.3
2017-Nov-03 03:00N 35°30' E 139°43'0 0.5
2017-Nov-03 02:26N 35°30' E 139°43'  
Track history (hours):
 
Tides and Currents Weather Stations Pressure Air Temp Water Temp Dewpoint Dewpoint Depression Visibility Wind Speed Wind Dir Waves Ship Positions

Tensho

Last reported at 2017-Nov-13 02:00 UTC. Time now 2017-Nov-18 19:19 UTC.
Position N 35°11' E 139°45'.

Length 62 m; draft 5.2 m.

Type: Cargo ship. MMSI: 431009101.

Date/timePositionNaut miles runAvg speedWind from/ knotsBaromVisibWave heightAir tempDewpointWater temp
2017-Nov-13 02:00N 35°11' E 139°45'510.1
2017-Nov-13 01:30N 35°17' E 139°45'510.3
2017-Nov-13 01:00N 35°21' E 139°42'510.4
2017-Nov-13 00:30N 35°26' E 139°43'4 7.4
2017-Nov-13 00:00N 35°30' E 139°43'0 0.4
2017-Nov-12 23:24N 35°30' E 139°43'0 0.0
2017-Nov-12 22:57N 35°30' E 139°43'0 0.0
2017-Nov-12 22:30N 35°30' E 139°43'0 0.0
2017-Nov-12 22:00N 35°30' E 139°43'0 0.0
2017-Nov-12 21:28N 35°30' E 139°43'0 0.0
2017-Nov-12 21:01N 35°30' E 139°43'0 0.0
2017-Nov-11 23:31N 35°30' E 139°43'0 0.0
2017-Nov-11 23:30N 35°30' E 139°43'1 2.3
2017-Nov-11 23:00N 35°29' E 139°42'4 7.9
2017-Nov-11 22:30N 35°26' E 139°45'5 9.6
2017-Nov-11 22:01N 35°21' E 139°45'5 9.5
2017-Nov-11 21:31N 35°16' E 139°46'5 9.4
2017-Nov-11 21:01N 35°12' E 139°47'5 9.6
2017-Nov-11 20:30N 35°07' E 139°45'5 9.3
2017-Nov-11 20:00N 35°03' E 139°42'5 9.8
2017-Nov-11 19:30N 35°00' E 139°37'510.2
2017-Nov-11 19:00N 34°57' E 139°32'19 0.5
2017-Nov-10 06:13N 34°50' E 139°11'2410.1
2017-Nov-10 03:49N 35°03' E 139°35'310.0
2017-Nov-10 03:30N 35°05' E 139°38'510.2
2017-Nov-10 03:01N 35°08' E 139°43'511.0
2017-Nov-10 02:30N 35°13' E 139°46'510.6
2017-Nov-10 02:00N 35°18' E 139°44'510.4
2017-Nov-10 01:30N 35°23' E 139°42'2 4.9
2017-Nov-10 01:01N 35°25' E 139°43'4 8.5
2017-Nov-10 00:31N 35°29' E 139°43'1 1.6
2017-Nov-09 23:58N 35°30' E 139°43'0 0.0
2017-Nov-09 23:28N 35°30' E 139°43'0 0.0
2017-Nov-09 22:58N 35°30' E 139°43'0 0.0
2017-Nov-09 22:28N 35°30' E 139°43'1 1.8
2017-Nov-09 22:00N 35°30' E 139°44'4 6.4
2017-Nov-09 21:25N 35°29' E 139°48'0 0.0
2017-Nov-09 20:58N 35°29' E 139°48'0 0.0
2017-Nov-09 19:34N 35°29' E 139°48'0 0.0
2017-Nov-09 19:22N 35°29' E 139°48'1 4.1
2017-Nov-09 19:00N 35°28' E 139°48'510.8
2017-Nov-09 18:30N 35°23' E 139°45'510.1
2017-Nov-09 18:00N 35°18' E 139°45'5 9.9
2017-Nov-09 17:30N 35°13' E 139°47'610.4
2017-Nov-09 16:58N 35°07' E 139°45'  
2017-Nov-03 08:46N 34°49' E 139°08'310.3
2017-Nov-03 08:30N 34°51' E 139°11'19 9.8
2017-Nov-03 06:33N 35°01' E 139°31'110.1
2017-Nov-03 06:27N 35°01' E 139°32'510.3
2017-Nov-03 06:00N 35°03' E 139°36'611.3
2017-Nov-03 05:30N 35°07' E 139°42'611.1
2017-Nov-03 05:00N 35°12' E 139°45'5 9.8
2017-Nov-03 04:28N 35°17' E 139°45'510.3
2017-Nov-03 04:00N 35°21' E 139°42'510.3
2017-Nov-03 03:31N 35°26' E 139°43'4 7.3
2017-Nov-03 03:00N 35°30' E 139°43'0 0.5
2017-Nov-03 02:26N 35°30' E 139°43'  

Dump ship's entire track history